sensor_id;sensor_type;location;lat;lon;timestamp;temperature;humidity
2873;DHT22;1444;49.166;7.312;2023-05-17T00:00:59;7.90;94.80
2873;DHT22;1444;49.166;7.312;2023-05-17T00:03:26;8.00;94.40
2873;DHT22;1444;49.166;7.312;2023-05-17T00:05:52;8.00;94.60
2873;DHT22;1444;49.166;7.312;2023-05-17T00:08:19;8.00;94.70
2873;DHT22;1444;49.166;7.312;2023-05-17T00:10:47;8.00;94.90
2873;DHT22;1444;49.166;7.312;2023-05-17T00:13:14;8.00;95.00
2873;DHT22;1444;49.166;7.312;2023-05-17T00:15:41;7.50;94.10
2873;DHT22;1444;49.166;7.312;2023-05-17T00:18:08;7.90;94.50
2873;DHT22;1444;49.166;7.312;2023-05-17T00:20:34;7.90;94.10
2873;DHT22;1444;49.166;7.312;2023-05-17T00:23:01;7.90;94.30
2873;DHT22;1444;49.166;7.312;2023-05-17T00:25:28;7.90;94.10
2873;DHT22;1444;49.166;7.312;2023-05-17T00:27:56;7.90;94.10
2873;DHT22;1444;49.166;7.312;2023-05-17T00:30:23;7.90;94.10
2873;DHT22;1444;49.166;7.312;2023-05-17T00:32:50;7.90;94.10
2873;DHT22;1444;49.166;7.312;2023-05-17T00:35:17;7.80;94.40
2873;DHT22;1444;49.166;7.312;2023-05-17T00:37:43;7.70;94.60
2873;DHT22;1444;49.166;7.312;2023-05-17T00:40:13;7.70;94.80
2873;DHT22;1444;49.166;7.312;2023-05-17T00:42:40;7.70;94.70
2873;DHT22;1444;49.166;7.312;2023-05-17T00:45:09;7.70;94.50
2873;DHT22;1444;49.166;7.312;2023-05-17T00:47:36;7.70;94.30
2873;DHT22;1444;49.166;7.312;2023-05-17T00:50:03;7.70;94.20
2873;DHT22;1444;49.166;7.312;2023-05-17T00:52:30;7.60;94.10
2873;DHT22;1444;49.166;7.312;2023-05-17T00:54:57;7.60;94.30
2873;DHT22;1444;49.166;7.312;2023-05-17T00:57:24;7.50;94.30
2873;DHT22;1444;49.166;7.312;2023-05-17T00:59:54;7.50;94.30
2873;DHT22;1444;49.166;7.312;2023-05-17T01:02:23;7.50;94.30
2873;DHT22;1444;49.166;7.312;2023-05-17T01:04:49;7.40;94.00
2873;DHT22;1444;49.166;7.312;2023-05-17T01:07:16;7.40;94.40
2873;DHT22;1444;49.166;7.312;2023-05-17T01:09:43;7.40;94.10
2873;DHT22;1444;49.166;7.312;2023-05-17T01:12:20;7.40;94.20
2873;DHT22;1444;49.166;7.312;2023-05-17T01:14:57;7.40;94.30
2873;DHT22;1444;49.166;7.312;2023-05-17T01:17:35;7.40;94.40
2873;DHT22;1444;49.166;7.312;2023-05-17T01:20:08;7.40;94.70
2873;DHT22;1444;49.166;7.312;2023-05-17T01:22:43;7.40;95.00
2873;DHT22;1444;49.166;7.312;2023-05-17T01:25:19;7.40;95.00
2873;DHT22;1444;49.166;7.312;2023-05-17T01:27:51;7.40;95.00
2873;DHT22;1444;49.166;7.312;2023-05-17T01:30:20;7.40;94.90
2873;DHT22;1444;49.166;7.312;2023-05-17T01:32:48;7.40;94.90
2873;DHT22;1444;49.166;7.312;2023-05-17T01:35:15;8.10;95.10
2873;DHT22;1444;49.166;7.312;2023-05-17T01:37:42;7.30;94.40
2873;DHT22;1444;49.166;7.312;2023-05-17T01:40:10;7.20;94.60
2873;DHT22;1444;49.166;7.312;2023-05-17T01:42:38;7.20;94.40
2873;DHT22;1444;49.166;7.312;2023-05-17T01:45:14;7.20;94.60
2873;DHT22;1444;49.166;7.312;2023-05-17T01:47:54;7.20;94.70
2873;DHT22;1444;49.166;7.312;2023-05-17T01:50:24;7.20;94.50
2873;DHT22;1444;49.166;7.312;2023-05-17T01:52:53;7.20;94.80
2873;DHT22;1444;49.166;7.312;2023-05-17T01:55:25;7.20;94.90
2873;DHT22;1444;49.166;7.312;2023-05-17T01:57:56;7.20;94.90
2873;DHT22;1444;49.166;7.312;2023-05-17T02:00:27;7.20;94.90
2873;DHT22;1444;49.166;7.312;2023-05-17T02:02:54;7.20;95.20
2873;DHT22;1444;49.166;7.312;2023-05-17T02:05:21;7.20;95.10
2873;DHT22;1444;49.166;7.312;2023-05-17T02:07:48;7.10;94.90
2873;DHT22;1444;49.166;7.312;2023-05-17T02:10:15;7.10;94.90
2873;DHT22;1444;49.166;7.312;2023-05-17T02:12:42;7.00;94.90
2873;DHT22;1444;49.166;7.312;2023-05-17T02:15:09;7.00;94.70
2873;DHT22;1444;49.166;7.312;2023-05-17T02:17:39;6.90;94.80
2873;DHT22;1444;49.166;7.312;2023-05-17T02:20:07;6.80;94.70
2873;DHT22;1444;49.166;7.312;2023-05-17T02:22:36;6.60;95.40
2873;DHT22;1444;49.166;7.312;2023-05-17T02:25:03;6.70;95.50
2873;DHT22;1444;49.166;7.312;2023-05-17T02:27:30;6.70;95.20
2873;DHT22;1444;49.166;7.312;2023-05-17T02:29:57;6.70;95.60
2873;DHT22;1444;49.166;7.312;2023-05-17T02:32:24;6.60;95.80
2873;DHT22;1444;49.166;7.312;2023-05-17T02:34:52;6.60;95.90
2873;DHT22;1444;49.166;7.312;2023-05-17T02:37:19;6.60;95.50
2873;DHT22;1444;49.166;7.312;2023-05-17T02:39:46;6.50;94.80
2873;DHT22;1444;49.166;7.312;2023-05-17T02:42:13;6.50;95.00
2873;DHT22;1444;49.166;7.312;2023-05-17T02:44:40;6.50;94.90
2873;DHT22;1444;49.166;7.312;2023-05-17T02:47:06;6.60;94.90
2873;DHT22;1444;49.166;7.312;2023-05-17T02:49:33;6.50;94.60
2873;DHT22;1444;49.166;7.312;2023-05-17T02:52:01;6.50;94.80
2873;DHT22;1444;49.166;7.312;2023-05-17T02:54:29;6.50;94.80
2873;DHT22;1444;49.166;7.312;2023-05-17T02:56:55;6.50;94.90
2873;DHT22;1444;49.166;7.312;2023-05-17T02:59:22;6.50;94.90
2873;DHT22;1444;49.166;7.312;2023-05-17T03:01:49;6.50;94.70
2873;DHT22;1444;49.166;7.312;2023-05-17T03:04:16;6.50;94.50
2873;DHT22;1444;49.166;7.312;2023-05-17T03:06:44;6.50;94.80
2873;DHT22;1444;49.166;7.312;2023-05-17T03:09:12;6.50;94.90
2873;DHT22;1444;49.166;7.312;2023-05-17T03:11:39;6.50;94.90
2873;DHT22;1444;49.166;7.312;2023-05-17T03:14:06;6.40;94.90
2873;DHT22;1444;49.166;7.312;2023-05-17T03:16:33;6.30;94.60
2873;DHT22;1444;49.166;7.312;2023-05-17T03:19:00;6.30;94.90
2873;DHT22;1444;49.166;7.312;2023-05-17T03:21:26;6.30;94.70
2873;DHT22;1444;49.166;7.312;2023-05-17T03:23:53;6.30;94.60
2873;DHT22;1444;49.166;7.312;2023-05-17T03:26:21;6.20;94.50
2873;DHT22;1444;49.166;7.312;2023-05-17T03:28:48;6.20;94.60
2873;DHT22;1444;49.166;7.312;2023-05-17T03:31:15;6.20;94.60
2873;DHT22;1444;49.166;7.312;2023-05-17T03:33:43;6.20;94.60
2873;DHT22;1444;49.166;7.312;2023-05-17T03:36:10;6.20;94.70
2873;DHT22;1444;49.166;7.312;2023-05-17T03:38:37;6.20;94.60
2873;DHT22;1444;49.166;7.312;2023-05-17T03:41:04;6.20;94.80
2873;DHT22;1444;49.166;7.312;2023-05-17T03:43:32;6.20;94.70
2873;DHT22;1444;49.166;7.312;2023-05-17T03:45:59;6.30;94.80
2873;DHT22;1444;49.166;7.312;2023-05-17T03:48:26;6.20;94.50
2873;DHT22;1444;49.166;7.312;2023-05-17T03:50:53;6.20;94.80
2873;DHT22;1444;49.166;7.312;2023-05-17T03:53:20;6.20;94.60
2873;DHT22;1444;49.166;7.312;2023-05-17T03:55:49;6.20;94.40
2873;DHT22;1444;49.166;7.312;2023-05-17T03:58:17;6.10;94.60
2873;DHT22;1444;49.166;7.312;2023-05-17T04:00:45;6.00;94.40
2873;DHT22;1444;49.166;7.312;2023-05-17T04:03:12;5.90;94.40
2873;DHT22;1444;49.166;7.312;2023-05-17T04:05:39;5.80;94.50
2873;DHT22;1444;49.166;7.312;2023-05-17T04:08:06;5.90;94.70
2873;DHT22;1444;49.166;7.312;2023-05-17T04:10:33;5.90;95.00
2873;DHT22;1444;49.166;7.312;2023-05-17T04:13:00;5.90;95.00
2873;DHT22;1444;49.166;7.312;2023-05-17T04:15:27;5.90;95.10
2873;DHT22;1444;49.166;7.312;2023-05-17T04:17:55;5.90;95.40
2873;DHT22;1444;49.166;7.312;2023-05-17T04:20:22;6.00;95.50
2873;DHT22;1444;49.166;7.312;2023-05-17T04:22:49;6.00;95.60
2873;DHT22;1444;49.166;7.312;2023-05-17T04:25:15;6.00;95.80
2873;DHT22;1444;49.166;7.312;2023-05-17T04:27:43;6.10;95.40
2873;DHT22;1444;49.166;7.312;2023-05-17T04:30:11;6.20;95.20
2873;DHT22;1444;49.166;7.312;2023-05-17T04:32:38;6.10;95.00
2873;DHT22;1444;49.166;7.312;2023-05-17T04:35:07;6.20;95.00
2873;DHT22;1444;49.166;7.312;2023-05-17T04:37:33;6.10;95.00
2873;DHT22;1444;49.166;7.312;2023-05-17T04:40:05;6.30;95.20
2873;DHT22;1444;49.166;7.312;2023-05-17T04:42:32;6.30;95.30
2873;DHT22;1444;49.166;7.312;2023-05-17T04:44:59;6.30;95.70
2873;DHT22;1444;49.166;7.312;2023-05-17T04:47:26;6.30;96.00
2873;DHT22;1444;49.166;7.312;2023-05-17T04:49:52;7.10;96.00
2873;DHT22;1444;49.166;7.312;2023-05-17T04:52:22;6.30;95.60
2873;DHT22;1444;49.166;7.312;2023-05-17T04:54:51;6.30;95.80
2873;DHT22;1444;49.166;7.312;2023-05-17T04:57:18;6.40;95.70
2873;DHT22;1444;49.166;7.312;2023-05-17T04:59:45;6.40;95.90
2873;DHT22;1444;49.166;7.312;2023-05-17T05:02:12;6.40;96.20
2873;DHT22;1444;49.166;7.312;2023-05-17T05:04:39;6.40;96.40
2873;DHT22;1444;49.166;7.312;2023-05-17T05:07:06;6.40;96.80
2873;DHT22;1444;49.166;7.312;2023-05-17T05:09:34;6.50;96.80
2873;DHT22;1444;49.166;7.312;2023-05-17T05:12:01;6.60;97.00
2873;DHT22;1444;49.166;7.312;2023-05-17T05:14:28;6.70;97.10
2873;DHT22;1444;49.166;7.312;2023-05-17T05:16:55;6.90;97.50
2873;DHT22;1444;49.166;7.312;2023-05-17T05:19:22;7.00;97.90
2873;DHT22;1444;49.166;7.312;2023-05-17T05:21:49;7.10;98.10
2873;DHT22;1444;49.166;7.312;2023-05-17T05:24:16;7.40;99.50
2873;DHT22;1444;49.166;7.312;2023-05-17T05:26:44;7.60;99.70
2873;DHT22;1444;49.166;7.312;2023-05-17T05:29:11;7.90;99.90
2873;DHT22;1444;49.166;7.312;2023-05-17T05:31:38;7.90;99.90
2873;DHT22;1444;49.166;7.312;2023-05-17T05:34:05;8.30;99.90
2873;DHT22;1444;49.166;7.312;2023-05-17T05:36:32;8.40;99.90
2873;DHT22;1444;49.166;7.312;2023-05-17T05:38:58;8.70;99.90
2873;DHT22;1444;49.166;7.312;2023-05-17T05:41:25;8.90;99.90
2873;DHT22;1444;49.166;7.312;2023-05-17T05:43:54;9.20;99.90
2873;DHT22;1444;49.166;7.312;2023-05-17T05:46:20;9.30;99.90
2873;DHT22;1444;49.166;7.312;2023-05-17T05:48:47;9.40;99.90
2873;DHT22;1444;49.166;7.312;2023-05-17T05:51:14;9.70;99.90
2873;DHT22;1444;49.166;7.312;2023-05-17T05:53:41;9.90;99.60
2873;DHT22;1444;49.166;7.312;2023-05-17T05:56:08;10.00;99.00
2873;DHT22;1444;49.166;7.312;2023-05-17T05:58:35;10.20;99.20
2873;DHT22;1444;49.166;7.312;2023-05-17T06:01:04;10.40;98.80
2873;DHT22;1444;49.166;7.312;2023-05-17T06:03:31;10.60;98.30
2873;DHT22;1444;49.166;7.312;2023-05-17T06:05:58;10.70;98.40
2873;DHT22;1444;49.166;7.312;2023-05-17T06:08:25;10.80;98.60
2873;DHT22;1444;49.166;7.312;2023-05-17T06:10:53;10.90;98.10
2873;DHT22;1444;49.166;7.312;2023-05-17T06:13:19;11.00;97.70
2873;DHT22;1444;49.166;7.312;2023-05-17T06:15:46;11.10;97.70
2873;DHT22;1444;49.166;7.312;2023-05-17T06:18:14;11.20;97.50
2873;DHT22;1444;49.166;7.312;2023-05-17T06:20:41;11.30;97.60
2873;DHT22;1444;49.166;7.312;2023-05-17T06:23:08;11.60;97.30
2873;DHT22;1444;49.166;7.312;2023-05-17T06:25:35;11.60;97.50
2873;DHT22;1444;49.166;7.312;2023-05-17T06:28:02;11.70;97.30
2873;DHT22;1444;49.166;7.312;2023-05-17T06:30:29;11.80;96.50
2873;DHT22;1444;49.166;7.312;2023-05-17T06:32:56;12.00;96.80
2873;DHT22;1444;49.166;7.312;2023-05-17T06:35:24;12.10;96.50
2873;DHT22;1444;49.166;7.312;2023-05-17T06:37:51;12.40;95.20
2873;DHT22;1444;49.166;7.312;2023-05-17T06:40:18;12.60;95.50
2873;DHT22;1444;49.166;7.312;2023-05-17T06:42:45;12.60;96.10
2873;DHT22;1444;49.166;7.312;2023-05-17T06:45:12;12.80;95.20
2873;DHT22;1444;49.166;7.312;2023-05-17T06:47:39;12.90;95.10
2873;DHT22;1444;49.166;7.312;2023-05-17T06:50:07;13.10;95.40
2873;DHT22;1444;49.166;7.312;2023-05-17T06:52:35;13.30;94.60
2873;DHT22;1444;49.166;7.312;2023-05-17T06:55:02;13.40;94.20
2873;DHT22;1444;49.166;7.312;2023-05-17T06:57:30;13.60;93.50
2873;DHT22;1444;49.166;7.312;2023-05-17T06:59:57;13.60;92.80
2873;DHT22;1444;49.166;7.312;2023-05-17T07:02:23;13.80;93.80
2873;DHT22;1444;49.166;7.312;2023-05-17T07:04:50;13.90;93.70
2873;DHT22;1444;49.166;7.312;2023-05-17T07:07:17;14.00;93.60
2873;DHT22;1444;49.166;7.312;2023-05-17T07:09:45;14.20;92.90
2873;DHT22;1444;49.166;7.312;2023-05-17T07:12:12;14.30;93.80
2873;DHT22;1444;49.166;7.312;2023-05-17T07:14:39;14.30;92.90
2873;DHT22;1444;49.166;7.312;2023-05-17T07:17:05;14.40;92.20
2873;DHT22;1444;49.166;7.312;2023-05-17T07:19:32;14.40;92.00
2873;DHT22;1444;49.166;7.312;2023-05-17T07:21:59;14.40;92.70
2873;DHT22;1444;49.166;7.312;2023-05-17T07:24:26;14.40;92.50
2873;DHT22;1444;49.166;7.312;2023-05-17T07:26:55;14.30;91.60
2873;DHT22;1444;49.166;7.312;2023-05-17T07:29:22;14.20;91.80
2873;DHT22;1444;49.166;7.312;2023-05-17T07:31:48;14.20;91.90
2873;DHT22;1444;49.166;7.312;2023-05-17T07:34:15;14.20;92.30
2873;DHT22;1444;49.166;7.312;2023-05-17T07:36:42;14.20;92.00
2873;DHT22;1444;49.166;7.312;2023-05-17T07:39:09;14.10;91.40
2873;DHT22;1444;49.166;7.312;2023-05-17T07:41:36;14.10;91.90
2873;DHT22;1444;49.166;7.312;2023-05-17T07:44:04;14.20;92.10
2873;DHT22;1444;49.166;7.312;2023-05-17T07:46:31;14.20;92.40
2873;DHT22;1444;49.166;7.312;2023-05-17T07:48:58;14.30;92.70
2873;DHT22;1444;49.166;7.312;2023-05-17T07:51:25;14.40;92.30
2873;DHT22;1444;49.166;7.312;2023-05-17T07:53:52;14.60;92.20
2873;DHT22;1444;49.166;7.312;2023-05-17T07:56:18;14.50;91.70
2873;DHT22;1444;49.166;7.312;2023-05-17T07:58:45;14.50;91.40
2873;DHT22;1444;49.166;7.312;2023-05-17T08:01:14;14.40;91.10
2873;DHT22;1444;49.166;7.312;2023-05-17T08:03:40;14.60;91.20
2873;DHT22;1444;49.166;7.312;2023-05-17T08:06:12;14.80;92.20
2873;DHT22;1444;49.166;7.312;2023-05-17T08:08:39;15.10;90.80
2873;DHT22;1444;49.166;7.312;2023-05-17T08:11:06;15.10;90.30
2873;DHT22;1444;49.166;7.312;2023-05-17T08:13:33;15.10;90.40
2873;DHT22;1444;49.166;7.312;2023-05-17T08:16:01;14.90;90.00
2873;DHT22;1444;49.166;7.312;2023-05-17T08:18:29;14.80;90.50
2873;DHT22;1444;49.166;7.312;2023-05-17T08:20:56;14.80;90.20
2873;DHT22;1444;49.166;7.312;2023-05-17T08:23:23;14.80;90.00
2873;DHT22;1444;49.166;7.312;2023-05-17T08:25:50;14.90;90.40
2873;DHT22;1444;49.166;7.312;2023-05-17T08:28:17;14.90;89.90
2873;DHT22;1444;49.166;7.312;2023-05-17T08:30:44;14.80;89.90
2873;DHT22;1444;49.166;7.312;2023-05-17T08:33:11;14.60;89.70
2873;DHT22;1444;49.166;7.312;2023-05-17T08:35:39;14.40;90.10
2873;DHT22;1444;49.166;7.312;2023-05-17T08:38:06;14.40;90.60
2873;DHT22;1444;49.166;7.312;2023-05-17T08:40:33;14.30;90.40
2873;DHT22;1444;49.166;7.312;2023-05-17T08:43:01;14.30;90.40
2873;DHT22;1444;49.166;7.312;2023-05-17T08:45:30;14.30;90.70
2873;DHT22;1444;49.166;7.312;2023-05-17T08:47:57;14.20;90.40
2873;DHT22;1444;49.166;7.312;2023-05-17T08:50:27;14.30;91.00
2873;DHT22;1444;49.166;7.312;2023-05-17T08:52:57;14.30;91.30
2873;DHT22;1444;49.166;7.312;2023-05-17T08:55:25;14.30;90.30
2873;DHT22;1444;49.166;7.312;2023-05-17T08:57:54;14.40;90.90
2873;DHT22;1444;49.166;7.312;2023-05-17T09:00:22;14.40;90.80
2873;DHT22;1444;49.166;7.312;2023-05-17T09:02:50;14.30;90.50
2873;DHT22;1444;49.166;7.312;2023-05-17T09:05:17;14.40;91.10
2873;DHT22;1444;49.166;7.312;2023-05-17T09:07:46;14.40;90.90
2873;DHT22;1444;49.166;7.312;2023-05-17T09:10:15;14.40;90.00
2873;DHT22;1444;49.166;7.312;2023-05-17T09:12:42;14.40;90.70
2873;DHT22;1444;49.166;7.312;2023-05-17T09:15:14;14.50;90.80
2873;DHT22;1444;49.166;7.312;2023-05-17T09:17:42;14.60;90.60
2873;DHT22;1444;49.166;7.312;2023-05-17T09:20:10;14.70;90.60
2873;DHT22;1444;49.166;7.312;2023-05-17T09:22:36;14.90;91.10
2873;DHT22;1444;49.166;7.312;2023-05-17T09:25:04;15.00;90.90
2873;DHT22;1444;49.166;7.312;2023-05-17T09:27:33;15.10;88.70
2873;DHT22;1444;49.166;7.312;2023-05-17T09:30:00;15.10;87.90
2873;DHT22;1444;49.166;7.312;2023-05-17T09:32:26;15.10;88.10
2873;DHT22;1444;49.166;7.312;2023-05-17T09:34:53;15.10;89.10
2873;DHT22;1444;49.166;7.312;2023-05-17T09:37:22;15.00;88.90
2873;DHT22;1444;49.166;7.312;2023-05-17T09:39:50;15.30;90.50
2873;DHT22;1444;49.166;7.312;2023-05-17T09:42:18;15.50;90.10
2873;DHT22;1444;49.166;7.312;2023-05-17T09:44:48;15.60;88.50
2873;DHT22;1444;49.166;7.312;2023-05-17T09:47:24;15.70;87.30
2873;DHT22;1444;49.166;7.312;2023-05-17T09:49:52;15.70;87.30
2873;DHT22;1444;49.166;7.312;2023-05-17T09:52:19;15.40;86.00
2873;DHT22;1444;49.166;7.312;2023-05-17T09:54:51;15.30;85.40
2873;DHT22;1444;49.166;7.312;2023-05-17T09:57:19;15.10;85.20
2873;DHT22;1444;49.166;7.312;2023-05-17T09:59:47;15.00;85.60
2873;DHT22;1444;49.166;7.312;2023-05-17T10:02:19;15.10;86.00
2873;DHT22;1444;49.166;7.312;2023-05-17T10:04:48;14.90;84.10
2873;DHT22;1444;49.166;7.312;2023-05-17T10:07:18;14.80;86.20
2873;DHT22;1444;49.166;7.312;2023-05-17T10:09:46;14.80;86.90
2873;DHT22;1444;49.166;7.312;2023-05-17T10:12:16;14.80;86.30
2873;DHT22;1444;49.166;7.312;2023-05-17T10:14:44;14.70;87.30
2873;DHT22;1444;49.166;7.312;2023-05-17T10:17:13;14.80;88.10
2873;DHT22;1444;49.166;7.312;2023-05-17T10:19:41;14.90;86.90
2873;DHT22;1444;49.166;7.312;2023-05-17T10:22:08;15.00;85.30
2873;DHT22;1444;49.166;7.312;2023-05-17T10:24:36;15.00;87.50
2873;DHT22;1444;49.166;7.312;2023-05-17T10:27:04;15.00;85.90
2873;DHT22;1444;49.166;7.312;2023-05-17T10:29:32;14.90;85.00
2873;DHT22;1444;49.166;7.312;2023-05-17T10:32:03;14.80;84.70
2873;DHT22;1444;49.166;7.312;2023-05-17T10:34:33;14.80;84.70
2873;DHT22;1444;49.166;7.312;2023-05-17T10:37:03;14.70;85.70
2873;DHT22;1444;49.166;7.312;2023-05-17T10:39:30;14.80;86.30
2873;DHT22;1444;49.166;7.312;2023-05-17T10:42:00;14.80;86.40
2873;DHT22;1444;49.166;7.312;2023-05-17T10:44:31;14.90;87.80
2873;DHT22;1444;49.166;7.312;2023-05-17T10:46:58;15.00;87.00
2873;DHT22;1444;49.166;7.312;2023-05-17T10:49:29;15.10;86.30
2873;DHT22;1444;49.166;7.312;2023-05-17T10:51:57;15.10;86.60
2873;DHT22;1444;49.166;7.312;2023-05-17T10:54:35;15.30;85.50
2873;DHT22;1444;49.166;7.312;2023-05-17T10:57:04;15.30;85.70
2873;DHT22;1444;49.166;7.312;2023-05-17T10:59:32;15.50;83.60
2873;DHT22;1444;49.166;7.312;2023-05-17T11:02:02;15.70;85.10
2873;DHT22;1444;49.166;7.312;2023-05-17T11:04:34;15.80;85.10
2873;DHT22;1444;49.166;7.312;2023-05-17T11:07:23;16.30;86.50
2873;DHT22;1444;49.166;7.312;2023-05-17T11:09:52;16.50;84.20
2873;DHT22;1444;49.166;7.312;2023-05-17T11:12:32;17.00;83.20
2873;DHT22;1444;49.166;7.312;2023-05-17T11:15:03;17.00;80.10
2873;DHT22;1444;49.166;7.312;2023-05-17T11:17:35;17.00;81.80
2873;DHT22;1444;49.166;7.312;2023-05-17T11:20:07;17.00;81.30
2873;DHT22;1444;49.166;7.312;2023-05-17T11:22:38;17.00;82.10
2873;DHT22;1444;49.166;7.312;2023-05-17T11:25:08;16.90;83.90
2873;DHT22;1444;49.166;7.312;2023-05-17T11:27:38;16.90;82.10
2873;DHT22;1444;49.166;7.312;2023-05-17T11:30:14;16.90;83.40
2873;DHT22;1444;49.166;7.312;2023-05-17T11:32:46;16.90;83.60
2873;DHT22;1444;49.166;7.312;2023-05-17T11:35:13;16.90;84.10
2873;DHT22;1444;49.166;7.312;2023-05-17T11:37:43;16.70;81.50
2873;DHT22;1444;49.166;7.312;2023-05-17T11:40:10;16.80;82.00
2873;DHT22;1444;49.166;7.312;2023-05-17T11:42:39;16.60;81.20
2873;DHT22;1444;49.166;7.312;2023-05-17T11:45:06;16.50;82.80
2873;DHT22;1444;49.166;7.312;2023-05-17T11:47:38;16.40;82.50
2873;DHT22;1444;49.166;7.312;2023-05-17T11:50:06;16.40;83.00
2873;DHT22;1444;49.166;7.312;2023-05-17T11:52:33;16.40;82.10
2873;DHT22;1444;49.166;7.312;2023-05-17T11:55:02;16.50;81.20
2873;DHT22;1444;49.166;7.312;2023-05-17T11:57:29;16.60;81.70
2873;DHT22;1444;49.166;7.312;2023-05-17T12:00:00;16.80;83.60
2873;DHT22;1444;49.166;7.312;2023-05-17T12:02:29;16.80;81.30
2873;DHT22;1444;49.166;7.312;2023-05-17T12:04:56;17.00;82.50
2873;DHT22;1444;49.166;7.312;2023-05-17T12:07:24;17.00;83.00
2873;DHT22;1444;49.166;7.312;2023-05-17T12:09:51;17.40;83.40
2873;DHT22;1444;49.166;7.312;2023-05-17T12:12:19;17.90;83.30
2873;DHT22;1444;49.166;7.312;2023-05-17T12:14:48;18.30;81.40
2873;DHT22;1444;49.166;7.312;2023-05-17T12:17:23;18.40;82.10
2873;DHT22;1444;49.166;7.312;2023-05-17T12:19:53;18.50;79.80
2873;DHT22;1444;49.166;7.312;2023-05-17T12:22:20;18.30;78.10
2873;DHT22;1444;49.166;7.312;2023-05-17T12:24:47;18.10;78.30
2873;DHT22;1444;49.166;7.312;2023-05-17T12:27:25;18.00;77.90
2873;DHT22;1444;49.166;7.312;2023-05-17T12:29:52;17.80;79.10
2873;DHT22;1444;49.166;7.312;2023-05-17T12:32:19;17.90;82.30
2873;DHT22;1444;49.166;7.312;2023-05-17T12:34:46;18.00;81.20
2873;DHT22;1444;49.166;7.312;2023-05-17T12:37:14;18.00;78.40
2873;DHT22;1444;49.166;7.312;2023-05-17T12:39:41;18.10;79.90
2873;DHT22;1444;49.166;7.312;2023-05-17T12:42:08;17.80;79.60
2873;DHT22;1444;49.166;7.312;2023-05-17T12:44:37;17.80;80.40
2873;DHT22;1444;49.166;7.312;2023-05-17T12:49:37;17.50;79.30
2873;DHT22;1444;49.166;7.312;2023-05-17T12:52:05;17.40;80.50
2873;DHT22;1444;49.166;7.312;2023-05-17T12:54:32;17.30;79.50
2873;DHT22;1444;49.166;7.312;2023-05-17T12:57:08;17.40;78.70
2873;DHT22;1444;49.166;7.312;2023-05-17T12:59:47;17.40;79.30
2873;DHT22;1444;49.166;7.312;2023-05-17T13:02:14;17.40;79.70
2873;DHT22;1444;49.166;7.312;2023-05-17T13:04:42;17.40;79.00
2873;DHT22;1444;49.166;7.312;2023-05-17T13:07:09;17.50;80.90
2873;DHT22;1444;49.166;7.312;2023-05-17T13:09:45;17.80;83.30
2873;DHT22;1444;49.166;7.312;2023-05-17T13:12:18;18.50;82.50
2873;DHT22;1444;49.166;7.312;2023-05-17T13:14:49;18.70;81.20
2873;DHT22;1444;49.166;7.312;2023-05-17T13:17:22;18.90;78.70
2873;DHT22;1444;49.166;7.312;2023-05-17T13:19:49;18.70;76.20
2873;DHT22;1444;49.166;7.312;2023-05-17T13:22:16;18.70;79.60
2873;DHT22;1444;49.166;7.312;2023-05-17T13:24:43;18.70;78.70
2873;DHT22;1444;49.166;7.312;2023-05-17T13:27:10;18.50;78.30
2873;DHT22;1444;49.166;7.312;2023-05-17T13:29:40;18.50;77.70
2873;DHT22;1444;49.166;7.312;2023-05-17T13:32:10;18.70;77.50
2873;DHT22;1444;49.166;7.312;2023-05-17T13:34:37;18.90;80.00
2873;DHT22;1444;49.166;7.312;2023-05-17T13:37:05;19.00;75.60
2873;DHT22;1444;49.166;7.312;2023-05-17T13:39:32;19.10;77.60
2873;DHT22;1444;49.166;7.312;2023-05-17T13:41:59;19.20;73.20
2873;DHT22;1444;49.166;7.312;2023-05-17T13:44:26;19.10;76.70
2873;DHT22;1444;49.166;7.312;2023-05-17T13:46:53;19.20;75.10
2873;DHT22;1444;49.166;7.312;2023-05-17T13:51:48;19.70;76.90
2873;DHT22;1444;49.166;7.312;2023-05-17T13:54:15;19.50;71.10
2873;DHT22;1444;49.166;7.312;2023-05-17T13:56:44;19.40;74.70
2873;DHT22;1444;49.166;7.312;2023-05-17T13:59:11;19.40;75.10
2873;DHT22;1444;49.166;7.312;2023-05-17T14:01:39;19.20;78.00
2873;DHT22;1444;49.166;7.312;2023-05-17T14:04:06;19.00;74.70
2873;DHT22;1444;49.166;7.312;2023-05-17T14:06:34;19.00;75.50
2873;DHT22;1444;49.166;7.312;2023-05-17T14:09:01;18.80;72.40
2873;DHT22;1444;49.166;7.312;2023-05-17T14:11:28;18.90;75.00
2873;DHT22;1444;49.166;7.312;2023-05-17T14:13:55;19.00;75.90
2873;DHT22;1444;49.166;7.312;2023-05-17T14:16:22;18.80;74.80
2873;DHT22;1444;49.166;7.312;2023-05-17T14:18:49;18.80;76.30
2873;DHT22;1444;49.166;7.312;2023-05-17T14:21:16;18.30;74.20
2873;DHT22;1444;49.166;7.312;2023-05-17T14:23:44;18.20;76.20
2873;DHT22;1444;49.166;7.312;2023-05-17T14:26:11;18.10;75.50
2873;DHT22;1444;49.166;7.312;2023-05-17T14:28:37;18.20;75.90
2873;DHT22;1444;49.166;7.312;2023-05-17T14:31:05;18.40;77.40
2873;DHT22;1444;49.166;7.312;2023-05-17T14:33:32;18.40;77.00
2873;DHT22;1444;49.166;7.312;2023-05-17T14:36:02;18.60;76.30
2873;DHT22;1444;49.166;7.312;2023-05-17T14:38:29;18.60;75.80
2873;DHT22;1444;49.166;7.312;2023-05-17T14:40:57;18.70;76.40
2873;DHT22;1444;49.166;7.312;2023-05-17T14:43:25;18.50;74.60
2873;DHT22;1444;49.166;7.312;2023-05-17T14:45:52;18.30;76.10
2873;DHT22;1444;49.166;7.312;2023-05-17T14:48:19;18.20;76.90
2873;DHT22;1444;49.166;7.312;2023-05-17T14:50:46;18.00;75.10
2873;DHT22;1444;49.166;7.312;2023-05-17T14:53:13;17.60;72.50
2873;DHT22;1444;49.166;7.312;2023-05-17T14:55:41;17.70;74.10
2873;DHT22;1444;49.166;7.312;2023-05-17T14:58:09;17.90;76.10
2873;DHT22;1444;49.166;7.312;2023-05-17T15:00:37;18.10;75.60
2873;DHT22;1444;49.166;7.312;2023-05-17T15:03:06;18.20;74.30
2873;DHT22;1444;49.166;7.312;2023-05-17T15:05:33;18.60;72.30
2873;DHT22;1444;49.166;7.312;2023-05-17T15:08:00;18.80;75.10
2873;DHT22;1444;49.166;7.312;2023-05-17T15:10:27;19.20;74.00
2873;DHT22;1444;49.166;7.312;2023-05-17T15:12:54;19.20;75.10
2873;DHT22;1444;49.166;7.312;2023-05-17T15:15:22;19.20;73.30
2873;DHT22;1444;49.166;7.312;2023-05-17T15:17:49;18.90;72.20
2873;DHT22;1444;49.166;7.312;2023-05-17T15:20:17;18.90;73.30
2873;DHT22;1444;49.166;7.312;2023-05-17T15:22:44;19.00;72.20
2873;DHT22;1444;49.166;7.312;2023-05-17T15:27:39;19.10;72.90
2873;DHT22;1444;49.166;7.312;2023-05-17T15:30:07;19.30;73.00
2873;DHT22;1444;49.166;7.312;2023-05-17T15:32:35;19.40;70.40
2873;DHT22;1444;49.166;7.312;2023-05-17T15:35:06;19.20;71.50
2873;DHT22;1444;49.166;7.312;2023-05-17T15:37:33;19.50;71.10
2873;DHT22;1444;49.166;7.312;2023-05-17T15:40:06;19.50;72.00
2873;DHT22;1444;49.166;7.312;2023-05-17T15:42:33;19.50;72.90
2873;DHT22;1444;49.166;7.312;2023-05-17T15:45:00;19.40;71.30
2873;DHT22;1444;49.166;7.312;2023-05-17T15:47:26;19.40;72.50
2873;DHT22;1444;49.166;7.312;2023-05-17T15:49:56;19.30;71.10
2873;DHT22;1444;49.166;7.312;2023-05-17T15:52:23;19.40;72.70
2873;DHT22;1444;49.166;7.312;2023-05-17T15:54:50;19.40;70.10
2873;DHT22;1444;49.166;7.312;2023-05-17T15:57:18;19.40;70.10
2873;DHT22;1444;49.166;7.312;2023-05-17T15:59:45;19.40;69.80
2873;DHT22;1444;49.166;7.312;2023-05-17T16:02:12;19.60;70.70
2873;DHT22;1444;49.166;7.312;2023-05-17T16:04:38;19.60;70.30
2873;DHT22;1444;49.166;7.312;2023-05-17T16:07:07;19.80;69.90
2873;DHT22;1444;49.166;7.312;2023-05-17T16:09:34;19.80;69.30
2873;DHT22;1444;49.166;7.312;2023-05-17T16:12:00;19.80;68.60
2873;DHT22;1444;49.166;7.312;2023-05-17T16:14:27;19.80;71.10
2873;DHT22;1444;49.166;7.312;2023-05-17T16:16:54;19.70;68.70
2873;DHT22;1444;49.166;7.312;2023-05-17T16:19:21;19.60;70.70